createdAt,value
2023-03-16T00:00:23.480Z,51.78
2023-03-16T00:02:50.969Z,51.63
2023-03-16T00:05:18.509Z,51.89
2023-03-16T00:07:47.261Z,51.84
2023-03-16T00:10:14.753Z,51.84
2023-03-16T00:12:43.520Z,52.20
2023-03-16T00:15:11.691Z,52.51
2023-03-16T00:17:39.288Z,52.74
2023-03-16T00:20:08.145Z,52.62
2023-03-16T00:22:35.661Z,52.77
2023-03-16T00:25:05.036Z,53.05
2023-03-16T00:27:32.468Z,52.67
2023-03-16T00:29:59.974Z,53.32
2023-03-16T00:32:29.242Z,53.03
2023-03-16T00:34:57.080Z,52.91
2023-03-16T00:37:26.674Z,52.99
2023-03-16T00:39:56.066Z,53.37
2023-03-16T00:42:27.865Z,53.25
2023-03-16T00:44:57.360Z,53.37
2023-03-16T00:47:25.532Z,53.40
2023-03-16T00:49:53.342Z,54.21
2023-03-16T00:52:22.124Z,53.86
2023-03-16T00:54:49.939Z,54.53
2023-03-16T00:57:19.072Z,54.03
2023-03-16T00:59:48.797Z,53.90
2023-03-16T01:02:19.212Z,53.68
2023-03-16T01:04:46.932Z,54.27
2023-03-16T01:07:15.829Z,54.47
2023-03-16T01:09:43.992Z,54.41
2023-03-16T01:12:14.554Z,54.14
2023-03-16T01:14:42.578Z,54.07
2023-03-16T01:17:13.811Z,53.71
2023-03-16T01:19:41.584Z,54.20
2023-03-16T01:22:11.516Z,53.71
2023-03-16T01:24:39.619Z,54.47
2023-03-16T01:27:07.729Z,54.35
2023-03-16T01:29:35.768Z,54.00
2023-03-16T01:32:04.191Z,54.00
2023-03-16T01:34:33.973Z,53.84
2023-03-16T01:37:02.163Z,54.04
2023-03-16T01:39:29.743Z,53.44
2023-03-16T01:41:57.249Z,53.45
2023-03-16T01:44:30.310Z,53.59
2023-03-16T01:46:58.110Z,53.51
2023-03-16T01:49:27.752Z,53.56
2023-03-16T01:52:00.880Z,53.44
2023-03-16T01:54:34.570Z,53.67
2023-03-16T01:57:05.800Z,53.21
2023-03-16T01:59:36.959Z,53.13
2023-03-16T02:02:04.909Z,53.32
2023-03-16T02:04:46.417Z,53.75
2023-03-16T02:07:17.901Z,53.52
2023-03-16T02:09:47.927Z,53.26
2023-03-16T02:12:18.737Z,53.08
2023-03-16T02:14:46.527Z,52.66
2023-03-16T02:17:15.287Z,52.96
2023-03-16T02:19:54.285Z,52.90
2023-03-16T02:22:24.983Z,52.81
2023-03-16T02:24:52.963Z,52.36
2023-03-16T02:27:27.646Z,51.81
2023-03-16T02:30:04.698Z,52.04
2023-03-16T02:32:33.586Z,51.97
2023-03-16T02:35:02.422Z,51.95
2023-03-16T02:37:33.856Z,51.48
2023-03-16T02:40:01.714Z,51.27
2023-03-16T02:42:30.067Z,51.14
2023-03-16T02:45:00.975Z,51.18
2023-03-16T02:47:34.751Z,51.69
2023-03-16T02:50:06.294Z,50.96
2023-03-16T02:52:35.026Z,51.23
2023-03-16T02:55:02.893Z,51.93
2023-03-16T02:57:31.622Z,51.33
2023-03-16T03:00:01.101Z,51.50
2023-03-16T03:02:28.523Z,51.65
2023-03-16T03:04:55.974Z,51.39
2023-03-16T03:07:31.651Z,51.95
2023-03-16T03:09:59.416Z,51.47
2023-03-16T03:12:26.881Z,51.44
2023-03-16T03:14:54.364Z,52.14
2023-03-16T03:17:29.743Z,52.11
2023-03-16T03:19:57.318Z,51.79
2023-03-16T03:22:26.093Z,52.35
2023-03-16T03:24:54.183Z,52.31
2023-03-16T03:27:22.472Z,52.04
2023-03-16T03:29:50.056Z,51.43
2023-03-16T03:32:17.518Z,51.54
2023-03-16T03:34:46.304Z,51.50
2023-03-16T03:37:13.728Z,51.94
2023-03-16T03:39:41.265Z,52.65
2023-03-16T03:42:09.050Z,52.48
2023-03-16T03:44:36.485Z,51.90
2023-03-16T03:47:05.624Z,52.09
2023-03-16T03:49:33.114Z,51.82
2023-03-16T03:52:04.874Z,51.68
2023-03-16T03:54:32.325Z,51.72
2023-03-16T03:56:59.761Z,51.71
2023-03-16T03:59:27.228Z,52.09
2023-03-16T04:01:54.719Z,52.02
2023-03-16T04:04:22.192Z,51.75
2023-03-16T04:06:51.094Z,51.93
2023-03-16T04:09:19.873Z,51.96
2023-03-16T04:11:47.269Z,51.69
2023-03-16T04:14:14.719Z,50.85
2023-03-16T04:16:44.147Z,51.53
2023-03-16T04:19:12.195Z,51.29
2023-03-16T04:21:39.616Z,51.25
2023-03-16T04:24:07.424Z,51.42
2023-03-16T04:26:36.220Z,52.01
2023-03-16T04:29:03.757Z,52.03
2023-03-16T04:31:31.222Z,51.78
2023-03-16T04:33:58.713Z,52.42
2023-03-16T04:36:26.391Z,51.89
2023-03-16T04:38:53.881Z,51.88
2023-03-16T04:41:21.336Z,52.06
2023-03-16T04:43:50.199Z,52.50
2023-03-16T04:46:17.847Z,52.58
2023-03-16T04:48:45.645Z,53.08
2023-03-16T04:51:13.129Z,52.99
2023-03-16T04:53:40.583Z,53.36
2023-03-16T04:56:08.855Z,53.72
2023-03-16T04:58:36.354Z,53.82
2023-03-16T05:01:05.311Z,54.16
2023-03-16T05:03:34.686Z,53.54
2023-03-16T05:06:02.297Z,53.73
2023-03-16T05:08:29.748Z,53.81
2023-03-16T05:10:58.007Z,54.20
2023-03-16T05:13:25.652Z,54.01
2023-03-16T05:15:54.447Z,53.93
2023-03-16T05:18:23.741Z,54.33
2023-03-16T05:20:51.912Z,53.95
2023-03-16T05:23:19.324Z,53.74
2023-03-16T05:25:47.331Z,54.22
2023-03-16T05:28:14.904Z,54.39
2023-03-16T05:30:43.076Z,54.84
2023-03-16T05:33:10.600Z,54.85
2023-03-16T05:35:39.518Z,54.49
2023-03-16T05:38:07.557Z,54.79
2023-03-16T05:40:35.091Z,54.33
2023-03-16T05:43:02.516Z,54.20
2023-03-16T05:45:29.955Z,54.00
2023-03-16T05:47:57.458Z,54.09
2023-03-16T05:50:24.981Z,54.26
2023-03-16T05:52:54.087Z,53.83
2023-03-16T05:55:21.515Z,53.98
2023-03-16T05:57:48.972Z,54.27
2023-03-16T06:00:19.641Z,53.98
2023-03-16T06:02:48.873Z,53.79
2023-03-16T06:05:17.244Z,54.36
2023-03-16T06:07:45.260Z,54.04
2023-03-16T06:10:14.597Z,53.80
2023-03-16T06:12:42.481Z,53.86
2023-03-16T06:15:11.735Z,54.10
2023-03-16T06:17:41.331Z,54.28
2023-03-16T06:20:11.440Z,53.96
2023-03-16T06:22:39.340Z,53.93
2023-03-16T06:25:09.766Z,53.96
2023-03-16T06:27:38.914Z,53.80
2023-03-16T06:30:08.580Z,54.06
2023-03-16T06:32:36.483Z,53.49
2023-03-16T06:35:04.205Z,53.75
2023-03-16T06:37:32.618Z,53.75
2023-03-16T06:40:00.164Z,53.79
2023-03-16T06:42:27.860Z,53.75
2023-03-16T06:44:56.806Z,53.65
2023-03-16T06:47:24.271Z,53.98
2023-03-16T06:49:54.238Z,54.15
2023-03-16T06:52:21.824Z,53.87
2023-03-16T06:54:49.269Z,53.56
2023-03-16T06:57:16.828Z,53.33
2023-03-16T06:59:44.258Z,52.94
2023-03-16T07:02:14.863Z,52.90
2023-03-16T07:04:42.692Z,52.37
2023-03-16T07:07:11.567Z,52.16
2023-03-16T07:09:41.630Z,52.72
2023-03-16T07:12:10.386Z,52.70
2023-03-16T07:14:37.995Z,52.87
2023-03-16T07:17:06.426Z,52.45
2023-03-16T07:19:35.335Z,52.39
2023-03-16T07:22:03.988Z,52.47
2023-03-16T07:24:32.682Z,52.54
2023-03-16T07:27:00.157Z,52.17
2023-03-16T07:29:27.659Z,52.12
2023-03-16T07:31:55.636Z,51.16
2023-03-16T07:34:23.146Z,51.87
2023-03-16T07:36:52.731Z,51.65
2023-03-16T07:39:20.245Z,52.01
2023-03-16T07:41:47.739Z,51.73
2023-03-16T07:44:15.277Z,51.81
2023-03-16T07:46:42.794Z,51.76
2023-03-16T07:49:12.111Z,51.18
2023-03-16T07:51:40.003Z,51.22
2023-03-16T07:54:09.016Z,50.57
2023-03-16T07:56:48.452Z,50.24
2023-03-16T07:59:16.613Z,50.86
2023-03-16T08:01:44.533Z,50.23
2023-03-16T08:04:12.479Z,50.26
2023-03-16T08:06:40.228Z,50.48
2023-03-16T08:09:09.327Z,50.05
2023-03-16T08:11:36.794Z,49.88
2023-03-16T08:14:05.355Z,50.23
2023-03-16T08:16:32.973Z,50.33
2023-03-16T08:19:01.164Z,49.97
2023-03-16T08:21:30.168Z,49.47
2023-03-16T08:23:57.678Z,48.54
2023-03-16T08:26:27.152Z,49.35
2023-03-16T08:28:55.072Z,49.75
2023-03-16T08:31:23.478Z,49.38
2023-03-16T08:33:51.700Z,50.15
2023-03-16T08:36:21.164Z,49.35
2023-03-16T08:39:04.095Z,49.62
2023-03-16T08:41:35.774Z,49.15
2023-03-16T08:44:03.538Z,49.76
2023-03-16T08:46:31.638Z,49.98
2023-03-16T08:48:59.136Z,49.92
2023-03-16T08:51:27.296Z,49.30
2023-03-16T08:53:55.490Z,49.44
2023-03-16T08:56:23.239Z,49.54
2023-03-16T08:58:53.015Z,49.23
2023-03-16T09:01:20.946Z,49.20
2023-03-16T09:03:48.730Z,48.56
2023-03-16T09:06:17.934Z,48.52
2023-03-16T09:08:47.553Z,49.80
2023-03-16T09:11:17.084Z,48.71
2023-03-16T09:13:45.879Z,48.57
2023-03-16T09:16:15.678Z,49.66
2023-03-16T09:18:44.115Z,48.92
2023-03-16T09:21:13.871Z,49.21
2023-03-16T09:23:42.793Z,49.12
2023-03-16T09:26:12.459Z,49.17
2023-03-16T09:28:41.881Z,49.05
2023-03-16T09:31:10.166Z,49.73
2023-03-16T09:33:39.911Z,49.12
2023-03-16T09:36:07.544Z,49.03
2023-03-16T09:38:35.015Z,49.25
2023-03-16T09:41:07.682Z,49.48
2023-03-16T09:43:58.946Z,49.93
2023-03-16T09:46:29.318Z,48.85
2023-03-16T09:48:58.791Z,49.32
2023-03-16T09:51:38.559Z,49.09
2023-03-16T09:54:18.440Z,47.90
2023-03-16T09:56:47.688Z,47.66
2023-03-16T09:59:17.355Z,47.79
2023-03-16T10:01:58.453Z,47.57
2023-03-16T10:04:41.349Z,47.58
2023-03-16T10:07:24.147Z,47.55
2023-03-16T10:09:58.518Z,46.67
2023-03-16T10:12:31.923Z,46.99
2023-03-16T10:15:05.692Z,48.08
2023-03-16T10:17:39.944Z,46.78
2023-03-16T10:20:17.328Z,46.40
2023-03-16T10:22:47.374Z,46.81
2023-03-16T10:25:23.107Z,47.17
2023-03-16T10:27:51.257Z,47.18
2023-03-16T10:30:24.451Z,46.56
2023-03-16T10:32:52.664Z,46.23
2023-03-16T10:35:35.976Z,46.48
2023-03-16T10:38:03.504Z,46.21
2023-03-16T10:40:33.524Z,46.80
2023-03-16T10:43:06.946Z,46.94
2023-03-16T10:45:36.644Z,47.13
2023-03-16T10:48:09.394Z,47.11
2023-03-16T10:50:38.330Z,47.07
2023-03-16T10:53:05.820Z,47.59
2023-03-16T10:55:43.593Z,47.12
2023-03-16T10:58:11.121Z,46.96
2023-03-16T11:00:45.331Z,47.35
2023-03-16T11:03:23.772Z,47.29
2023-03-16T11:06:00.582Z,47.55
2023-03-16T11:08:32.539Z,47.61
2023-03-16T11:11:02.489Z,47.90
2023-03-16T11:13:34.419Z,47.93
2023-03-16T11:16:07.556Z,48.48
2023-03-16T11:18:39.530Z,48.21
2023-03-16T11:21:17.160Z,48.45
2023-03-16T11:23:55.929Z,48.27
2023-03-16T11:26:28.229Z,47.53
2023-03-16T11:29:02.476Z,47.33
2023-03-16T11:31:42.618Z,47.30
2023-03-16T11:34:16.066Z,47.07
2023-03-16T11:36:51.130Z,47.32
2023-03-16T11:39:40.232Z,46.42
2023-03-16T11:42:20.647Z,46.00
2023-03-16T11:44:56.482Z,46.15
2023-03-16T11:47:58.370Z,45.76
2023-03-16T11:50:34.465Z,45.31
2023-03-16T11:53:12.124Z,45.01
2023-03-16T11:55:48.035Z,44.77
2023-03-16T11:58:29.903Z,45.12
2023-03-16T12:01:07.340Z,44.17
2023-03-16T12:03:57.003Z,44.22
2023-03-16T12:06:39.189Z,43.93
2023-03-16T12:09:35.673Z,43.37
2023-03-16T12:12:08.687Z,42.90
2023-03-16T12:14:42.648Z,43.22
2023-03-16T12:17:15.646Z,43.59
2023-03-16T12:19:50.283Z,42.10
2023-03-16T12:22:22.584Z,42.22
2023-03-16T12:24:51.456Z,41.45
2023-03-16T12:27:23.909Z,40.74
2023-03-16T12:30:03.626Z,40.73
2023-03-16T12:32:42.731Z,40.90
2023-03-16T12:35:22.503Z,41.42
2023-03-16T12:38:01.304Z,41.03
2023-03-16T12:40:39.461Z,40.91
2023-03-16T12:43:19.173Z,39.97
2023-03-16T12:45:52.777Z,39.90
2023-03-16T12:48:28.063Z,40.57
2023-03-16T12:50:58.674Z,40.63
2023-03-16T12:53:28.647Z,41.50
2023-03-16T12:55:58.192Z,41.28
2023-03-16T12:58:28.001Z,40.66
2023-03-16T13:00:59.001Z,41.50
2023-03-16T13:03:28.400Z,41.46
2023-03-16T13:05:59.385Z,41.45
2023-03-16T13:08:28.829Z,41.27
2023-03-16T13:11:06.812Z,41.43
2023-03-16T13:13:36.222Z,41.72
2023-03-16T13:16:09.231Z,41.27
2023-03-16T13:18:41.728Z,41.47
2023-03-16T13:21:19.377Z,40.51
2023-03-16T13:23:59.342Z,41.46
2023-03-16T13:26:39.095Z,41.09
2023-03-16T13:29:20.249Z,41.30
2023-03-16T13:31:48.501Z,41.26
2023-03-16T13:34:23.183Z,40.99
2023-03-16T13:36:56.815Z,41.25
2023-03-16T13:39:27.262Z,41.38
2023-03-16T13:42:05.524Z,41.36
2023-03-16T13:44:33.728Z,41.15
2023-03-16T13:47:05.470Z,40.82
2023-03-16T13:49:33.119Z,40.63
2023-03-16T13:52:00.888Z,40.85
2023-03-16T13:54:30.593Z,40.55
2023-03-16T13:57:00.224Z,40.29
2023-03-16T13:59:29.229Z,41.10
2023-03-16T14:01:59.480Z,41.63
2023-03-16T14:04:29.131Z,40.71
2023-03-16T14:06:58.168Z,40.70
2023-03-16T14:09:28.887Z,41.20
2023-03-16T14:11:57.682Z,40.88
2023-03-16T14:14:30.684Z,40.98
2023-03-16T14:17:05.263Z,41.79
2023-03-16T14:19:42.258Z,41.55
2023-03-16T14:22:15.555Z,41.97
2023-03-16T14:24:44.213Z,40.90
2023-03-16T14:27:21.704Z,42.59
2023-03-16T14:29:59.841Z,42.71
2023-03-16T14:32:31.771Z,42.19
2023-03-16T14:35:12.843Z,42.07
2023-03-16T14:37:41.098Z,42.58
2023-03-16T14:40:21.744Z,42.02
2023-03-16T14:42:49.475Z,41.64
2023-03-16T14:45:20.248Z,41.05
2023-03-16T14:47:49.561Z,40.99
2023-03-16T14:50:23.695Z,41.01
2023-03-16T14:52:52.566Z,40.30
2023-03-16T14:55:22.763Z,40.69
2023-03-16T14:57:51.275Z,39.70
2023-03-16T15:00:22.788Z,40.58
2023-03-16T15:03:02.417Z,40.48
2023-03-16T15:05:35.310Z,40.20
2023-03-16T15:08:06.589Z,40.66
2023-03-16T15:10:36.672Z,40.16
2023-03-16T15:13:13.175Z,40.11
2023-03-16T15:15:42.758Z,41.56
2023-03-16T15:18:10.773Z,41.89
2023-03-16T15:20:42.199Z,40.79
2023-03-16T15:23:14.436Z,40.73
2023-03-16T15:25:43.382Z,40.65
2023-03-16T15:28:13.600Z,41.01
2023-03-16T15:30:43.153Z,41.40
2023-03-16T15:33:11.580Z,41.33
2023-03-16T15:35:40.112Z,41.40
2023-03-16T15:38:12.664Z,40.97
2023-03-16T15:40:40.639Z,41.84
2023-03-16T15:43:12.295Z,42.34
2023-03-16T15:45:39.794Z,41.62
2023-03-16T15:48:10.914Z,42.41
2023-03-16T15:50:40.830Z,42.10
2023-03-16T15:53:29.311Z,41.64
2023-03-16T15:56:01.127Z,41.63
2023-03-16T15:58:30.626Z,42.61
2023-03-16T16:01:00.936Z,41.66
2023-03-16T16:03:29.728Z,42.35
2023-03-16T16:05:57.288Z,41.79
2023-03-16T16:08:24.715Z,43.10
2023-03-16T16:10:53.681Z,43.06
2023-03-16T16:13:34.127Z,42.76
2023-03-16T16:16:10.814Z,45.06
2023-03-16T16:18:39.958Z,44.77
2023-03-16T16:21:12.854Z,44.92
2023-03-16T16:23:40.354Z,44.56
2023-03-16T16:26:21.148Z,44.05
2023-03-16T16:28:48.649Z,45.04
2023-03-16T16:31:16.894Z,45.31
2023-03-16T16:33:45.740Z,44.33
2023-03-16T16:36:17.554Z,44.33
2023-03-16T16:38:45.010Z,43.99
2023-03-16T16:41:24.755Z,44.48
2023-03-16T16:43:53.681Z,43.75
2023-03-16T16:46:23.721Z,44.82
2023-03-16T16:48:54.604Z,43.96
2023-03-16T16:51:24.595Z,43.45
2023-03-16T16:53:53.530Z,43.96
2023-03-16T16:56:26.263Z,43.66
2023-03-16T16:58:54.151Z,43.78
2023-03-16T17:01:26.563Z,43.55
2023-03-16T17:03:55.522Z,43.59
2023-03-16T17:06:23.506Z,43.40
2023-03-16T17:08:52.244Z,43.97
2023-03-16T17:11:22.829Z,44.04
2023-03-16T17:13:51.629Z,44.41
2023-03-16T17:16:21.857Z,44.62
2023-03-16T17:18:50.416Z,44.54
2023-03-16T17:21:21.677Z,44.71
2023-03-16T17:23:50.373Z,44.98
2023-03-16T17:26:19.677Z,44.80
2023-03-16T17:28:52.167Z,45.08
2023-03-16T17:31:24.426Z,44.79
2023-03-16T17:33:53.133Z,45.50
2023-03-16T17:36:23.400Z,45.12
2023-03-16T17:38:51.941Z,45.06
2023-03-16T17:41:23.650Z,45.47
2023-03-16T17:43:54.308Z,45.28
2023-03-16T17:46:24.398Z,45.45
2023-03-16T17:48:52.990Z,45.35
2023-03-16T17:51:25.372Z,45.58
2023-03-16T17:53:53.732Z,45.53
2023-03-16T17:56:24.201Z,45.83
2023-03-16T17:58:56.984Z,45.95
2023-03-16T18:01:29.059Z,45.45
2023-03-16T18:03:57.060Z,45.57
2023-03-16T18:06:29.061Z,45.72
2023-03-16T18:08:57.180Z,45.81
2023-03-16T18:11:31.707Z,46.01
2023-03-16T18:13:59.189Z,45.73
2023-03-16T18:16:28.149Z,45.61
2023-03-16T18:18:59.733Z,46.02
2023-03-16T18:21:28.697Z,46.05
2023-03-16T18:23:56.232Z,46.22
2023-03-16T18:26:24.485Z,46.02
2023-03-16T18:28:53.305Z,46.39
2023-03-16T18:31:23.717Z,46.65
2023-03-16T18:33:53.691Z,46.30
2023-03-16T18:36:24.924Z,46.82
2023-03-16T18:38:54.421Z,46.44
2023-03-16T18:41:24.248Z,46.55
2023-03-16T18:43:53.251Z,46.31
2023-03-16T18:46:25.073Z,46.56
2023-03-16T18:48:53.848Z,47.56
2023-03-16T18:51:22.187Z,47.19
2023-03-16T18:53:49.920Z,47.15
2023-03-16T18:56:21.614Z,47.24
2023-03-16T18:58:49.510Z,47.29
2023-03-16T19:01:26.454Z,47.64
2023-03-16T19:03:54.904Z,47.62
2023-03-16T19:06:27.155Z,48.36
2023-03-16T19:08:55.753Z,48.57
2023-03-16T19:11:24.666Z,48.17
2023-03-16T19:13:54.679Z,48.30
2023-03-16T19:16:23.202Z,48.04
2023-03-16T19:18:50.734Z,48.23
2023-03-16T19:21:21.053Z,48.08
2023-03-16T19:23:54.728Z,48.69
2023-03-16T19:26:23.821Z,48.50
2023-03-16T19:28:51.806Z,49.12
2023-03-16T19:31:22.204Z,48.76
2023-03-16T19:33:51.830Z,49.04
2023-03-16T19:36:22.487Z,49.49
2023-03-16T19:38:50.980Z,49.18
2023-03-16T19:41:27.752Z,49.98
2023-03-16T19:43:57.686Z,50.08
2023-03-16T19:46:25.954Z,50.08
2023-03-16T19:48:53.652Z,49.56
2023-03-16T19:51:21.805Z,50.00
2023-03-16T19:53:49.368Z,50.59
2023-03-16T19:56:19.864Z,49.76
2023-03-16T19:58:51.008Z,49.64
2023-03-16T20:01:22.036Z,50.37
2023-03-16T20:03:53.230Z,50.72
2023-03-16T20:06:23.187Z,50.47
2023-03-16T20:08:51.827Z,50.34
2023-03-16T20:11:26.359Z,50.88
2023-03-16T20:13:56.405Z,50.50
2023-03-16T20:16:28.334Z,50.49
2023-03-16T20:18:58.737Z,50.30
2023-03-16T20:21:27.380Z,50.49
2023-03-16T20:23:55.301Z,50.79
2023-03-16T20:26:24.579Z,51.39
2023-03-16T20:28:52.985Z,51.21
2023-03-16T20:31:23.417Z,50.92
2023-03-16T20:33:52.613Z,51.13
2023-03-16T20:36:21.993Z,50.73
2023-03-16T20:38:49.675Z,51.52
2023-03-16T20:41:23.145Z,51.77
2023-03-16T20:43:51.638Z,51.71
2023-03-16T20:46:24.386Z,51.68
2023-03-16T20:48:51.855Z,51.06
2023-03-16T20:51:19.570Z,50.68
2023-03-16T20:53:48.889Z,51.47
2023-03-16T20:56:17.882Z,51.46
2023-03-16T20:58:47.833Z,51.21
2023-03-16T21:01:18.171Z,51.21
2023-03-16T21:03:48.651Z,50.78
2023-03-16T21:06:23.500Z,51.70
2023-03-16T21:08:52.747Z,51.48
2023-03-16T21:11:23.599Z,50.96
2023-03-16T21:13:51.544Z,51.27
2023-03-16T21:16:19.999Z,50.84
2023-03-16T21:18:49.239Z,51.05
2023-03-16T21:21:18.246Z,50.15
2023-03-16T21:23:46.434Z,50.50
2023-03-16T21:26:16.979Z,50.37
2023-03-16T21:28:48.391Z,51.26
2023-03-16T21:31:19.689Z,51.15
2023-03-16T21:33:49.524Z,51.04
2023-03-16T21:36:19.424Z,50.06
2023-03-16T21:38:47.691Z,50.28
2023-03-16T21:41:16.503Z,50.40
2023-03-16T21:43:44.592Z,50.02
2023-03-16T21:46:18.281Z,49.93
2023-03-16T21:48:48.810Z,49.77
2023-03-16T21:51:19.696Z,50.14
2023-03-16T21:53:48.697Z,50.35
2023-03-16T21:56:18.688Z,50.52
2023-03-16T21:58:47.446Z,49.74
2023-03-16T22:01:23.419Z,50.13
2023-03-16T22:03:53.685Z,49.75
2023-03-16T22:06:23.615Z,49.95
2023-03-16T22:08:52.246Z,49.39
2023-03-16T22:11:22.443Z,49.63
2023-03-16T22:13:51.062Z,49.83
2023-03-16T22:16:20.491Z,50.41
2023-03-16T22:18:50.022Z,49.45
2023-03-16T22:21:29.973Z,49.64
2023-03-16T22:23:59.139Z,49.76
2023-03-16T22:26:27.723Z,49.69
2023-03-16T22:28:56.057Z,50.52
2023-03-16T22:31:30.264Z,50.03
2023-03-16T22:33:57.740Z,50.82
2023-03-16T22:36:26.899Z,50.34
2023-03-16T22:38:59.292Z,49.91
2023-03-16T22:41:27.045Z,49.78
2023-03-16T22:43:54.880Z,50.26
2023-03-16T22:46:24.738Z,50.40
2023-03-16T22:48:53.046Z,50.03
2023-03-16T22:51:24.698Z,49.63
2023-03-16T22:53:56.087Z,49.40
2023-03-16T22:56:24.440Z,49.81
2023-03-16T22:58:55.665Z,50.03
2023-03-16T23:01:24.499Z,50.46
2023-03-16T23:03:53.575Z,50.13
2023-03-16T23:06:23.149Z,50.43
2023-03-16T23:08:51.527Z,50.27
2023-03-16T23:11:23.851Z,49.73
2023-03-16T23:13:53.420Z,49.84
2023-03-16T23:16:23.219Z,49.96
2023-03-16T23:18:51.181Z,49.50
2023-03-16T23:21:21.207Z,49.69
2023-03-16T23:24:02.641Z,48.74
2023-03-16T23:26:32.908Z,49.46
2023-03-16T23:29:00.339Z,49.26
2023-03-16T23:31:28.275Z,49.38
2023-03-16T23:33:56.019Z,49.70
2023-03-16T23:36:25.743Z,49.98
2023-03-16T23:38:53.212Z,49.42
2023-03-16T23:41:23.456Z,49.30
2023-03-16T23:43:53.932Z,48.94
2023-03-16T23:46:24.188Z,49.12
2023-03-16T23:48:53.662Z,49.14
2023-03-16T23:51:23.858Z,48.99
2023-03-16T23:53:52.016Z,49.02
2023-03-16T23:56:19.890Z,49.29
2023-03-16T23:58:47.309Z,49.56
